»·PEaware :: N6507W L88-KSBP

N6507W :: L88-KSBP

FLIGHT INFORMATION

Flight Status: Arrived
Operator: Privately registered:
United States
More flights under this callsign
Pilot: Jukka N. (18040)
Aircraft: PIPER PA-28R-201 ARROW
(P28R)
More flights by this aircraft type
Origin: L88 New Cuyama
United States
Destination: KSBP San Luis Co Regl
United States
More flights between these airports :: More routes between these airports
Route:
File this flight plan on PilotEdge
Remarks:
Altitude:
(Current/Filed)
6,500ft
Speed:
(Current/Filed)
150kts
Departed: 09-Mar-19 08:14 AM
Arrived: 09-Mar-19 08:46 AM
Distance/Time
Traveled:
50nm/0:32
Distance/Time
To Go:
Arrived

Flight Plot

Page will automatically refresh every two minutes.


Map Options




Map Legend


Flown Route
Filed Route
Departure Airport
Arrival Airport
Navaid (VOR, NDB)
Fix

Horizontal Profiles

Position Reports

Time Latitude Longitude Heading Altitude Ground
Speed
09-Mar-19 08:08 34.942861 -119.690283 204 2206ft 0kts
09-Mar-19 08:09 34.942860 -119.690283 204 2206ft 0kts
09-Mar-19 08:10 34.942621 -119.691200 189 2206ft 0kts
09-Mar-19 08:11 34.941498 -119.689339 112 2206ft 25kts
09-Mar-19 08:12 34.937812 -119.680457 125 2206ft 25kts
09-Mar-19 08:13 34.941084 -119.689132 292 2420ft 81kts
09-Mar-19 08:14 34.949758 -119.716865 292 3377ft 92kts
09-Mar-19 08:15 34.959431 -119.747281 292 4131ft 97kts
09-Mar-19 08:16 34.974536 -119.774248 298 4883ft 95kts
09-Mar-19 08:17 34.986363 -119.802289 293 5634ft 91kts
09-Mar-19 08:18 34.997133 -119.829443 292 6384ft 87kts
09-Mar-19 08:19 35.007444 -119.855459 291 7136ft 83kts
09-Mar-19 08:20 35.018774 -119.884301 292 6920ft 106kts
09-Mar-19 08:21 35.031386 -119.915965 292 6520ft 88kts
09-Mar-19 08:22 35.042926 -119.945321 293 6525ft 113kts
09-Mar-19 08:23 35.057262 -119.981219 293 6524ft 119kts
09-Mar-19 08:24 35.071750 -120.017889 293 6523ft 120kts
09-Mar-19 08:25 35.086223 -120.054632 293 6523ft 120kts
09-Mar-19 08:26 35.100376 -120.090603 293 6523ft 120kts
09-Mar-19 08:27 35.114637 -120.126889 293 6523ft 120kts
09-Mar-19 08:28 35.129120 -120.163779 293 6523ft 120kts
09-Mar-19 08:29 35.127330 -120.203491 262 6523ft 119kts
09-Mar-19 08:30 35.122331 -120.238738 262 6046ft 103kts
09-Mar-19 08:31 35.117189 -120.274501 263 4989ft 108kts
09-Mar-19 08:32 35.111941 -120.310980 264 3933ft 110kts
09-Mar-19 08:33 35.107342 -120.342558 264 4439ft 86kts
09-Mar-19 08:34 35.103561 -120.368089 268 4516ft 67kts
09-Mar-19 08:35 35.100288 -120.395088 279 4516ft 80kts
09-Mar-19 08:36 35.109609 -120.417674 309 4517ft 73kts
09-Mar-19 08:37 35.122336 -120.439917 294 4517ft 90kts
09-Mar-19 08:38 35.137725 -120.466669 295 4515ft 99kts
09-Mar-19 08:39 35.153387 -120.494028 295 4585ft 94kts
09-Mar-19 08:40 35.169218 -120.521994 298 4251ft 128kts
09-Mar-19 08:41 35.188368 -120.555222 300 3036ft 119kts
09-Mar-19 08:42 35.206412 -120.586812 303 1830ft 99kts
09-Mar-19 08:43 35.221345 -120.613499 299 876ft 101kts
09-Mar-19 08:44 35.235648 -120.638153 309 215ft 58kts
09-Mar-19 08:45 35.237515 -120.639923 3 215ft 4kts
09-Mar-19 08:46 35.238336 -120.640088 203 215ft 0kts
09-Mar-19 08:47 35.238336 -120.640088 203 215ft 0kts
09-Mar-19 08:48 35.238336 -120.640088 203 215ft 0kts
09-Mar-19 08:49 35.238336 -120.640088 203 215ft 0kts
09-Mar-19 08:50 35.238336 -120.640088 203 215ft 0kts
09-Mar-19 08:51 35.238336 -120.640088 203 215ft 0kts
09-Mar-19 08:52 35.238336 -120.640088 203 215ft 0kts
09-Mar-19 08:53 35.238336 -120.640088 203 215ft 0kts
09-Mar-19 08:54 35.238336 -120.640088 203 215ft 0kts
09-Mar-19 08:55 35.238336 -120.640088 203 215ft 0kts
09-Mar-19 08:56 35.238336 -120.640088 203 215ft 0kts
09-Mar-19 08:57 35.238336 -120.640088 203 215ft 0kts
09-Mar-19 08:58 35.238336 -120.640088 203 215ft 0kts
09-Mar-19 08:59 35.238336 -120.640088 203 215ft 0kts

Navigation Log

Ident Type
Flight plan parsing failed, navigation log unavailable